Time;durP1;ratioP1;P1;durP2;ratioP2;P2;SDS_P1;SDS_P2;PMS_P1;PMS_P2;Temp;Humidity;BMP_temperature;BMP_pressure;BME280_temperature;BME280_humidity;BME280_pressure;Samples;Min_cycle;Max_cycle;Signal;HPM_P1;HPM_P2
2022/01/18 00:00:36;;;;;;;39.33;17.08;;;3.80;99.90;;;;;;5089929;28;20184;-64
2022/01/18 00:03:03;;;;;;;29.70;15.32;;;3.80;99.90;;;;;;5091371;28;20257;-64
2022/01/18 00:05:28;;;;;;;30.30;14.27;;;3.80;99.90;;;;;;5091336;28;20184;-64
2022/01/18 00:07:54;;;;;;;28.73;15.05;;;3.80;99.90;;;;;;5091355;28;20180;-64
2022/01/18 00:10:23;;;;;;;33.13;17.30;;;3.80;99.90;;;;;;5091008;28;20173;-64
2022/01/18 00:13:08;;;;;;;34.78;16.02;;;3.80;99.90;;;;;;5091068;28;20215;-64
2022/01/18 00:20:48;;;;;;;32.05;15.48;;;3.70;99.90;;;;;;5091233;28;20255;-64
2022/01/18 00:23:14;;;;;;;31.90;15.27;;;3.70;99.90;;;;;;5091364;28;20220;-64
2022/01/18 00:25:43;;;;;;;31.92;16.00;;;3.70;99.90;;;;;;5091306;28;20185;-65
2022/01/18 00:28:09;;;;;;;33.22;16.08;;;3.70;99.90;;;;;;5092529;28;20191;-65
2022/01/18 00:31:03;;;;;;;37.55;16.75;;;3.70;99.90;;;;;;5094678;28;20180;-64
2022/01/18 00:33:25;;;;;;;30.00;15.05;;;3.70;99.90;;;;;;5094632;28;20191;-65
2022/01/18 00:35:59;;;;;;;34.67;15.57;;;3.70;99.90;;;;;;5091609;28;20184;-64
2022/01/18 00:38:43;;;;;;;37.13;17.23;;;3.60;99.90;;;;;;5093610;28;20587;-64
2022/01/18 00:41:10;;;;;;;33.85;15.40;;;3.70;99.90;;;;;;5094540;28;20180;-64
2022/01/18 00:43:36;;;;;;;31.47;15.40;;;3.70;99.90;;;;;;5094698;28;20227;-64
2022/01/18 00:46:02;;;;;;;36.90;15.30;;;3.60;99.90;;;;;;5094534;28;20176;-65
2022/01/18 00:48:32;;;;;;;35.73;16.23;;;3.60;99.90;;;;;;5094463;28;20211;-64
2022/01/18 00:50:58;;;;;;;34.35;15.07;;;3.60;99.90;;;;;;5084510;28;20178;-64
2022/01/18 00:53:25;;;;;;;34.45;16.10;;;3.60;99.90;;;;;;5094650;28;20538;-62
2022/01/18 00:56:54;;;;;;;33.55;15.30;;;3.60;99.90;;;;;;5094493;28;20266;-62
2022/01/18 00:58:48;;;;;;;36.20;16.08;;;3.60;99.90;;;;;;5089550;28;20214;-62
2022/01/18 01:01:14;;;;;;;34.08;15.32;;;3.60;99.90;;;;;;5094387;28;20192;-62
2022/01/18 01:03:41;;;;;;;32.60;15.57;;;3.70;99.90;;;;;;5093813;28;20228;-62
2022/01/18 01:06:07;;;;;;;31.63;15.35;;;3.70;99.90;;;;;;5094491;28;20176;-62
2022/01/18 01:08:34;;;;;;;31.13;15.35;;;3.70;99.90;;;;;;5093699;28;20534;-62
2022/01/18 01:11:01;;;;;;;33.40;15.65;;;3.70;99.90;;;;;;5082281;28;20439;-62
2022/01/18 01:13:29;;;;;;;33.88;14.85;;;3.70;99.90;;;;;;5093998;28;20535;-62
2022/01/18 01:17:04;;;;;;;33.08;13.88;;;3.70;99.90;;;;;;5094227;28;20176;-62
2022/01/18 01:19:10;;;;;;;30.42;15.23;;;3.80;99.90;;;;;;5083952;28;20234;-63
2022/01/18 01:33:17;;;;;;;26.83;13.77;;;3.80;99.90;;;;;;5080342;28;20186;-63
2022/01/18 01:36:02;;;;;;;29.83;13.68;;;3.80;99.90;;;;;;5089794;28;20220;-63
2022/01/18 01:44:19;;;;;;;33.95;14.85;;;3.80;99.90;;;;;;5075398;28;20234;-63
2022/01/18 01:46:45;;;;;;;33.05;14.25;;;3.80;99.90;;;;;;5093753;28;20186;-62
2022/01/18 01:49:13;;;;;;;33.72;15.18;;;3.90;99.90;;;;;;5093434;28;20180;-62
2022/01/18 01:51:40;;;;;;;31.55;13.85;;;3.90;99.90;;;;;;5093453;28;20276;-63
2022/01/18 01:54:08;;;;;;;30.35;13.43;;;3.90;99.90;;;;;;5091854;28;20576;-62
2022/01/18 01:56:34;;;;;;;28.55;13.70;;;4.00;99.90;;;;;;5093292;28;20184;-63
2022/01/18 01:59:01;;;;;;;26.83;13.63;;;4.00;99.90;;;;;;5092910;28;20676;-63
2022/01/18 02:01:27;;;;;;;27.58;12.73;;;4.10;99.90;;;;;;5093109;28;20260;-62
2022/01/18 02:03:53;;;;;;;30.75;14.23;;;4.10;99.90;;;;;;5092908;28;20207;-63
2022/01/18 02:06:19;;;;;;;27.20;13.48;;;4.00;99.90;;;;;;5086429;28;20624;-63
2022/01/18 02:08:44;;;;;;;28.38;14.25;;;4.10;99.90;;;;;;5079564;28;20731;-63
2022/01/18 02:11:11;;;;;;;26.10;12.90;;;4.10;99.90;;;;;;5092242;28;20255;-63
2022/01/18 02:13:37;;;;;;;27.67;12.85;;;4.10;99.90;;;;;;5092837;28;20175;-63
2022/01/18 02:23:58;;;;;;;24.38;12.27;;;4.10;99.90;;;;;;5092055;28;20245;-63
2022/01/18 02:26:24;;;;;;;25.73;12.48;;;4.10;99.90;;;;;;5091740;28;20188;-63
2022/01/18 02:28:49;;;;;;;29.70;13.05;;;4.10;99.90;;;;;;5092344;28;20187;-63
2022/01/18 02:31:15;;;;;;;27.92;13.18;;;4.10;99.90;;;;;;5091835;28;20195;-63
2022/01/18 02:33:40;;;;;;;30.10;13.20;;;4.10;99.90;;;;;;5091876;28;20188;-63
2022/01/18 02:36:07;;;;;;;31.38;13.65;;;4.10;99.90;;;;;;5092379;28;20196;-63
2022/01/18 02:38:33;;;;;;;29.35;13.65;;;4.00;99.90;;;;;;5092285;28;20184;-63
2022/01/18 02:40:59;;;;;;;31.92;14.63;;;4.00;99.90;;;;;;5091851;28;20546;-63
2022/01/18 02:46:10;;;;;;;30.95;14.27;;;4.00;99.90;;;;;;5092695;28;20244;-63
2022/01/18 02:48:36;;;;;;;29.40;14.27;;;4.00;99.90;;;;;;5092000;28;20291;-63
2022/01/18 02:51:01;;;;;;;30.83;14.35;;;3.90;99.90;;;;;;5091528;28;20263;-63
2022/01/18 02:53:27;;;;;;;31.08;13.95;;;3.90;99.90;;;;;;5092344;28;20184;-63
2022/01/18 02:55:54;;;;;;;31.92;14.23;;;3.90;99.90;;;;;;5091981;28;20265;-63
2022/01/18 02:58:27;;;;;;;31.00;13.85;;;3.90;99.90;;;;;;5072626;28;20204;-63
2022/01/18 03:03:36;;;;;;;25.95;13.38;;;4.00;99.90;;;;;;5092169;28;20303;-63
2022/01/18 03:06:03;;;;;;;30.10;14.30;;;4.00;99.90;;;;;;5091401;28;20187;-63
2022/01/18 03:08:29;;;;;;;29.58;13.13;;;4.10;99.90;;;;;;5091568;28;20184;-63
2022/01/18 03:10:55;;;;;;;31.08;13.35;;;4.10;99.90;;;;;;5091405;28;20689;-63
2022/01/18 03:13:21;;;;;;;28.80;13.88;;;4.10;99.90;;;;;;5092170;28;20241;-63
2022/01/18 03:15:47;;;;;;;33.70;14.98;;;4.20;99.90;;;;;;5091679;28;20188;-63
2022/01/18 03:18:12;;;;;;;30.45;12.98;;;4.10;99.90;;;;;;5091605;28;20180;-63
2022/01/18 03:20:38;;;;;;;30.20;14.57;;;4.00;99.90;;;;;;5090748;28;20183;-63
2022/01/18 03:23:17;;;;;;;30.08;13.77;;;4.00;99.90;;;;;;5091135;28;20674;-63
2022/01/18 03:25:57;;;;;;;30.17;14.20;;;3.90;99.90;;;;;;5091530;28;20249;-63
2022/01/18 03:28:25;;;;;;;30.13;14.02;;;3.90;99.90;;;;;;5090930;28;20179;-63
2022/01/18 03:30:54;;;;;;;30.27;13.55;;;3.90;99.90;;;;;;5091532;28;20647;-63
2022/01/18 03:33:21;;;;;;;26.92;13.50;;;3.90;99.90;;;;;;5091509;28;20657;-63
2022/01/18 03:35:48;;;;;;;29.60;14.35;;;4.00;99.90;;;;;;5091352;28;20187;-63
2022/01/18 03:38:15;;;;;;;27.48;13.65;;;4.00;99.90;;;;;;5091304;28;20197;-63
2022/01/18 03:40:41;;;;;;;29.35;13.02;;;4.00;99.90;;;;;;5090795;28;20195;-63
2022/01/18 03:43:10;;;;;;;30.05;13.63;;;4.00;99.90;;;;;;5091423;28;20215;-63
2022/01/18 03:45:43;;;;;;;25.27;13.05;;;4.00;99.90;;;;;;5091731;28;20353;-63
2022/01/18 03:48:24;;;;;;;24.23;12.50;;;3.90;99.90;;;;;;5091394;28;20172;-63
2022/01/18 03:50:50;;;;;;;28.23;13.32;;;3.90;99.90;;;;;;5091715;28;20251;-63
2022/01/18 03:53:17;;;;;;;25.15;12.52;;;3.90;99.90;;;;;;5091126;28;20180;-63
2022/01/18 03:55:43;;;;;;;28.65;13.35;;;3.80;99.90;;;;;;5090819;28;20207;-63
2022/01/18 03:58:09;;;;;;;26.33;12.43;;;3.80;99.90;;;;;;5090759;28;20235;-63
2022/01/18 04:00:34;;;;;;;30.75;13.50;;;3.80;99.90;;;;;;5087759;28;20180;-63
2022/01/18 04:03:00;;;;;;;28.90;13.00;;;3.70;99.90;;;;;;5092092;28;20687;-63
2022/01/18 04:05:26;;;;;;;27.00;12.80;;;3.70;99.90;;;;;;5095326;28;20263;-63
2022/01/18 04:07:51;;;;;;;28.35;13.55;;;3.70;99.90;;;;;;5095585;28;20575;-63
2022/01/18 04:10:17;;;;;;;29.27;13.50;;;3.70;99.90;;;;;;5095178;28;20180;-62
2022/01/18 04:12:43;;;;;;;27.02;12.45;;;3.70;99.90;;;;;;5094684;28;20527;-62
2022/01/18 04:15:12;;;;;;;25.48;12.82;;;3.70;99.90;;;;;;5095641;28;20180;-63
2022/01/18 04:28:24;;;;;;;28.83;13.15;;;3.80;99.90;;;;;;5094754;28;20211;-63
2022/01/18 04:30:50;;;;;;;27.65;12.93;;;3.80;99.90;;;;;;5095008;28;20188;-63
2022/01/18 04:33:15;;;;;;;30.35;12.90;;;3.80;99.90;;;;;;5094171;28;20187;-63
2022/01/18 04:35:41;;;;;;;26.55;13.25;;;3.80;99.90;;;;;;5094713;28;20283;-63
2022/01/18 04:38:07;;;;;;;30.80;13.20;;;3.80;99.90;;;;;;5094358;28;20172;-63
2022/01/18 04:40:33;;;;;;;27.27;12.43;;;3.80;99.90;;;;;;5094452;28;20184;-63
2022/01/18 04:43:10;;;;;;;27.52;13.68;;;3.80;99.90;;;;;;5094855;28;20212;-63
2022/01/18 04:48:31;;;;;;;26.60;12.77;;;3.80;99.90;;;;;;5094283;28;20206;-63
2022/01/18 04:51:09;;;;;;;31.70;13.18;;;3.80;99.90;;;;;;5094720;28;20258;-63
2022/01/18 04:53:41;;;;;;;27.80;12.93;;;3.80;99.90;;;;;;5094077;28;20179;-62
2022/01/18 04:56:14;;;;;;;31.00;13.35;;;3.80;99.90;;;;;;5093851;28;20190;-62
2022/01/18 04:58:39;;;;;;;26.27;13.10;;;3.80;99.90;;;;;;5094018;28;20212;-62
2022/01/18 05:01:07;;;;;;;26.17;12.95;;;3.80;99.90;;;;;;5092889;28;20550;-62
2022/01/18 05:03:33;;;;;;;26.05;13.07;;;3.80;99.90;;;;;;5093854;28;20612;-62
2022/01/18 05:06:02;;;;;;;32.25;13.50;;;3.80;99.90;;;;;;5094262;28;20236;-62
2022/01/18 05:08:28;;;;;;;30.10;13.80;;;3.90;99.90;;;;;;5093868;28;20293;-61
2022/01/18 05:10:57;;;;;;;30.17;13.40;;;3.90;99.90;;;;;;5088858;28;20187;-63
2022/01/18 05:21:29;;;;;;;24.35;12.40;;;3.90;99.90;;;;;;5093899;28;20176;-63
2022/01/18 05:23:55;;;;;;;27.83;13.43;;;3.90;99.90;;;;;;5093820;28;20211;-59
2022/01/18 05:26:22;;;;;;;27.17;13.63;;;3.90;99.90;;;;;;5093983;28;20661;-60
2022/01/18 05:28:48;;;;;;;26.25;12.93;;;3.90;99.90;;;;;;5094145;28;20214;-62
2022/01/18 05:31:14;;;;;;;26.20;12.60;;;3.90;99.90;;;;;;5091920;28;20180;-62
2022/01/18 05:33:41;;;;;;;28.33;13.13;;;3.90;99.90;;;;;;5093632;28;20184;-64
2022/01/18 05:36:07;;;;;;;26.70;13.43;;;3.90;99.90;;;;;;5093587;28;20699;-62
2022/01/18 05:38:33;;;;;;;26.75;12.38;;;3.90;99.90;;;;;;5093817;28;20211;-62
2022/01/18 05:40:59;;;;;;;30.85;14.55;;;3.90;99.90;;;;;;5093422;28;20636;-63
2022/01/18 05:43:25;;;;;;;29.42;13.25;;;3.90;99.90;;;;;;5093114;28;20291;-61
2022/01/18 05:45:51;;;;;;;27.85;13.02;;;3.90;99.90;;;;;;5093063;28;20610;-60
2022/01/18 05:48:16;;;;;;;27.92;13.35;;;3.90;99.90;;;;;;5093693;28;20184;-61
2022/01/18 05:50:42;;;;;;;26.33;12.77;;;3.90;99.90;;;;;;5093845;28;20164;-62
2022/01/18 05:53:07;;;;;;;27.90;13.20;;;3.90;99.90;;;;;;5093639;28;20180;-62
2022/01/18 05:55:33;;;;;;;28.77;13.23;;;3.90;99.90;;;;;;5092403;28;20176;-62
2022/01/18 05:57:59;;;;;;;26.73;12.32;;;3.90;99.90;;;;;;5093191;28;20225;-61
2022/01/18 06:00:26;;;;;;;27.48;13.15;;;3.90;99.90;;;;;;5093345;28;20180;-61
2022/01/18 06:08:05;;;;;;;25.65;12.55;;;3.90;99.90;;;;;;5092624;28;20301;-63
2022/01/18 06:10:31;;;;;;;26.77;13.23;;;3.90;99.90;;;;;;5093255;28;20659;-66
2022/01/18 06:12:56;;;;;;;24.17;12.38;;;3.80;99.90;;;;;;5092702;28;20176;-63
2022/01/18 06:15:22;;;;;;;23.85;11.60;;;3.80;99.90;;;;;;5093186;28;20203;-62
2022/01/18 06:17:48;;;;;;;23.70;11.32;;;3.80;99.90;;;;;;5092678;28;20176;-62
2022/01/18 06:20:14;;;;;;;22.13;11.27;;;3.80;99.90;;;;;;5093083;28;20169;-62
2022/01/18 06:22:39;;;;;;;25.35;10.88;;;3.80;99.90;;;;;;5092441;28;20403;-62
2022/01/18 06:25:06;;;;;;;22.20;10.77;;;3.70;99.90;;;;;;5092361;28;20225;-61
2022/01/18 06:27:32;;;;;;;24.27;10.95;;;3.70;99.90;;;;;;5092399;28;20636;-63
2022/01/18 06:29:57;;;;;;;21.88;11.57;;;3.70;99.90;;;;;;5092793;28;20198;-63
2022/01/18 06:32:24;;;;;;;23.35;10.40;;;3.70;99.90;;;;;;5092536;28;20219;-62
2022/01/18 06:34:50;;;;;;;23.67;11.02;;;3.70;99.90;;;;;;5091306;28;20184;-62
2022/01/18 06:37:15;;;;;;;25.58;11.50;;;3.60;99.90;;;;;;5092614;28;20536;-69
2022/01/18 06:39:41;;;;;;;24.95;10.98;;;3.60;99.90;;;;;;5092611;28;20585;-73
2022/01/18 06:42:10;;;;;;;18.67;10.02;;;3.60;99.90;;;;;;5092264;28;20204;-73
2022/01/18 06:44:36;;;;;;;20.13;10.27;;;3.60;99.90;;;;;;5091908;28;20565;-73
2022/01/18 06:47:01;;;;;;;22.23;11.40;;;3.60;99.90;;;;;;5091640;28;20184;-66
2022/01/18 06:49:27;;;;;;;24.25;10.90;;;3.60;99.90;;;;;;5092539;28;20259;-69
2022/01/18 06:51:52;;;;;;;21.27;10.13;;;3.50;99.90;;;;;;5092556;28;20187;-68
2022/01/18 06:54:18;;;;;;;24.48;10.13;;;3.50;99.90;;;;;;5091178;28;20221;-68
2022/01/18 06:56:48;;;;;;;23.33;10.38;;;3.50;99.90;;;;;;5096471;28;20228;-67
2022/01/18 06:59:13;;;;;;;24.15;11.57;;;3.50;99.90;;;;;;5112487;28;20378;-68
2022/01/18 07:01:39;;;;;;;22.08;10.30;;;3.50;99.90;;;;;;5110769;28;20262;-67
2022/01/18 07:04:05;;;;;;;21.75;10.48;;;3.50;99.90;;;;;;5092104;28;20179;-68
2022/01/18 07:06:31;;;;;;;24.55;10.48;;;3.50;99.90;;;;;;5092216;28;20168;-69
2022/01/18 07:08:57;;;;;;;21.33;10.20;;;3.40;99.90;;;;;;5091892;28;20203;-68
2022/01/18 07:11:23;;;;;;;21.90;10.48;;;3.50;99.90;;;;;;5091735;28;20649;-67
2022/01/18 07:13:48;;;;;;;20.75;10.13;;;3.50;99.90;;;;;;5091857;28;20288;-68
2022/01/18 07:16:14;;;;;;;22.60;10.88;;;3.50;99.90;;;;;;5092060;28;20222;-63
2022/01/18 07:18:39;;;;;;;21.98;10.73;;;3.50;99.90;;;;;;5092155;28;20176;-63
2022/01/18 07:21:05;;;;;;;24.10;10.98;;;3.50;99.90;;;;;;5092294;28;20639;-64
2022/01/18 07:23:31;;;;;;;21.88;11.00;;;3.50;99.90;;;;;;5092060;28;20243;-63
2022/01/18 07:25:57;;;;;;;21.85;9.88;;;3.40;99.90;;;;;;5091889;28;20206;-64
2022/01/18 07:28:22;;;;;;;22.55;10.52;;;3.50;99.90;;;;;;5091931;28;20190;-63
2022/01/18 07:30:49;;;;;;;23.20;11.20;;;3.50;99.90;;;;;;5092230;28;20631;-63
2022/01/18 07:33:15;;;;;;;31.35;11.98;;;3.50;99.90;;;;;;5091564;28;20206;-63
2022/01/18 07:35:42;;;;;;;27.00;13.95;;;3.50;99.90;;;;;;5091889;28;20180;-64
2022/01/18 07:38:12;;;;;;;27.88;14.40;;;3.50;99.90;;;;;;5090712;28;20176;-63
2022/01/18 07:40:40;;;;;;;21.95;11.90;;;3.50;99.90;;;;;;5092029;28;20627;-64
2022/01/18 07:43:06;;;;;;;23.30;12.45;;;3.60;99.90;;;;;;5091460;28;20263;-64
2022/01/18 07:45:32;;;;;;;29.05;13.55;;;3.60;99.90;;;;;;5091830;28;20524;-63
2022/01/18 07:47:57;;;;;;;32.13;15.40;;;3.60;99.90;;;;;;5091740;28;20202;-64
2022/01/18 07:50:24;;;;;;;41.28;17.70;;;3.70;99.90;;;;;;5091705;28;20584;-64
2022/01/18 07:52:49;;;;;;;35.55;17.08;;;3.80;99.90;;;;;;5091919;28;20172;-64
2022/01/18 07:55:15;;;;;;;38.03;16.42;;;3.80;99.90;;;;;;5091786;28;20539;-63
2022/01/18 07:57:42;;;;;;;34.85;16.20;;;3.80;99.90;;;;;;5090392;28;20214;-64
2022/01/18 08:00:13;;;;;;;36.15;16.63;;;3.90;99.90;;;;;;5091516;28;20227;-64
2022/01/18 08:02:39;;;;;;;33.67;16.33;;;3.90;99.90;;;;;;5091741;28;20200;-64
2022/01/18 08:05:07;;;;;;;32.35;15.57;;;4.00;99.90;;;;;;5090322;28;20176;-64
2022/01/18 08:07:33;;;;;;;36.75;15.82;;;4.10;99.90;;;;;;5091694;28;20186;-63
2022/01/18 08:09:58;;;;;;;33.92;15.35;;;4.10;99.90;;;;;;5089258;28;20192;-64
2022/01/18 08:12:24;;;;;;;37.28;16.45;;;4.10;99.90;;;;;;5071427;28;20165;-63
2022/01/18 08:14:53;;;;;;;33.17;16.63;;;4.20;99.90;;;;;;5071472;28;20184;-63
2022/01/18 08:17:19;;;;;;;30.08;15.43;;;4.20;99.90;;;;;;5071415;28;20169;-63
2022/01/18 08:19:44;;;;;;;29.73;15.25;;;4.20;99.90;;;;;;5071186;28;20169;-63
2022/01/18 08:22:10;;;;;;;34.00;14.98;;;4.30;99.90;;;;;;5071263;28;20200;-63
2022/01/18 08:24:37;;;;;;;34.50;14.27;;;4.30;99.90;;;;;;5071432;28;20180;-63
2022/01/18 08:27:03;;;;;;;27.65;13.93;;;4.30;99.90;;;;;;5071079;28;20716;-63
2022/01/18 08:29:30;;;;;;;31.15;14.25;;;4.30;99.90;;;;;;5071399;28;20165;-63
2022/01/18 08:31:55;;;;;;;27.88;13.85;;;4.40;99.90;;;;;;5071270;28;20261;-64
2022/01/18 08:34:21;;;;;;;24.67;13.40;;;4.40;99.90;;;;;;5069932;28;20259;-63
2022/01/18 08:36:47;;;;;;;29.40;14.23;;;4.40;99.90;;;;;;5071267;28;20182;-64
2022/01/18 08:39:12;;;;;;;30.60;14.23;;;4.40;99.90;;;;;;5069861;28;20181;-64
2022/01/18 08:41:38;;;;;;;24.85;13.75;;;4.50;99.90;;;;;;5071281;28;20648;-64
2022/01/18 08:44:04;;;;;;;31.27;14.98;;;4.50;99.90;;;;;;5081062;28;20243;-64
2022/01/18 08:46:30;;;;;;;30.60;14.85;;;4.60;99.90;;;;;;5090208;28;20320;-64
2022/01/18 08:48:55;;;;;;;29.90;15.15;;;4.60;99.90;;;;;;5092417;28;20187;-64
2022/01/18 08:51:21;;;;;;;31.15;15.02;;;4.60;99.90;;;;;;5094707;28;20270;-64
2022/01/18 08:53:50;;;;;;;32.70;14.77;;;4.70;99.90;;;;;;5095047;28;20214;-64
2022/01/18 08:56:20;;;;;;;30.35;15.43;;;4.70;99.90;;;;;;5094818;28;20183;-64
2022/01/18 08:58:47;;;;;;;29.77;14.85;;;4.70;99.90;;;;;;5094813;28;20223;-64
2022/01/18 09:01:13;;;;;;;25.67;14.18;;;4.70;99.90;;;;;;5094852;28;20172;-64
2022/01/18 09:03:39;;;;;;;30.17;13.32;;;4.80;99.90;;;;;;5094781;28;20216;-64
2022/01/18 09:06:06;;;;;;;26.70;14.50;;;4.80;99.90;;;;;;5094638;28;20190;-64
2022/01/18 09:08:36;;;;;;;28.63;14.85;;;4.90;99.90;;;;;;5094738;28;20192;-64
2022/01/18 09:11:04;;;;;;;29.48;14.68;;;4.90;99.90;;;;;;5083289;28;20272;-64
2022/01/18 09:13:33;;;;;;;34.33;14.70;;;5.00;99.90;;;;;;5074247;28;20603;-64
2022/01/18 09:15:59;;;;;;;28.67;14.20;;;5.10;99.90;;;;;;5074203;28;20651;-64
2022/01/18 09:18:25;;;;;;;33.08;15.20;;;5.20;99.90;;;;;;5074202;28;20187;-64
2022/01/18 09:20:51;;;;;;;32.60;15.32;;;5.30;99.90;;;;;;5074153;28;20196;-64
2022/01/18 09:23:16;;;;;;;29.95;15.15;;;5.40;99.90;;;;;;5074078;28;20560;-63
2022/01/18 09:25:42;;;;;;;29.75;16.35;;;5.40;99.90;;;;;;5074018;28;20819;-63
2022/01/18 09:28:08;;;;;;;31.80;15.55;;;5.50;99.90;;;;;;5073930;28;20188;-63
2022/01/18 09:30:35;;;;;;;34.92;15.85;;;5.60;99.90;;;;;;5074069;28;20180;-63
2022/01/18 09:33:02;;;;;;;29.17;15.40;;;5.70;99.90;;;;;;5073830;28;20464;-63
2022/01/18 09:35:28;;;;;;;26.60;13.52;;;5.80;99.90;;;;;;5074052;28;20192;-63
2022/01/18 09:37:54;;;;;;;29.48;14.23;;;5.90;99.90;;;;;;5073894;28;20536;-63
2022/01/18 09:40:22;;;;;;;29.83;13.27;;;6.00;99.90;;;;;;5072558;28;20717;-63
2022/01/18 09:42:55;;;;;;;28.05;14.35;;;6.10;99.90;;;;;;5074605;28;20261;-63
2022/01/18 09:45:23;;;;;;;38.88;18.58;;;6.20;99.90;;;;;;5092717;28;20172;-63
2022/01/18 09:47:52;;;;;;;33.47;17.02;;;6.40;99.90;;;;;;5093887;28;20188;-63
2022/01/18 09:50:25;;;;;;;32.88;17.48;;;6.50;99.90;;;;;;5093848;28;20180;-63
2022/01/18 09:52:54;;;;;;;32.40;16.30;;;6.50;99.90;;;;;;5093920;28;20184;-63
2022/01/18 09:55:23;;;;;;;34.90;16.00;;;6.60;99.90;;;;;;5093736;28;20176;-63
2022/01/18 09:57:49;;;;;;;29.23;15.55;;;6.70;99.90;;;;;;5093824;28;20255;-63
2022/01/18 10:00:16;;;;;;;30.40;15.52;;;6.70;99.90;;;;;;5092465;28;20804;-63
2022/01/18 10:02:42;;;;;;;28.27;14.10;;;6.70;99.90;;;;;;5093476;28;20204;-63
2022/01/18 10:05:38;;;;;;;28.10;13.82;;;6.70;99.90;;;;;;5093524;28;20198;-63
2022/01/18 10:08:06;;;;;;;26.70;13.23;;;6.80;99.90;;;;;;5079488;28;20222;-63
2022/01/18 10:10:39;;;;;;;29.65;14.05;;;6.80;99.90;;;;;;5086519;28;20291;-63
2022/01/18 10:13:06;;;;;;;25.17;13.70;;;6.80;99.90;;;;;;5073112;28;20173;-63
2022/01/18 10:15:32;;;;;;;30.65;14.57;;;6.80;99.90;;;;;;5073286;28;20641;-63
2022/01/18 10:18:06;;;;;;;26.27;14.13;;;6.80;99.90;;;;;;5071847;28;20208;-63
2022/01/18 10:20:32;;;;;;;26.50;13.95;;;6.80;99.90;;;;;;5073145;28;20182;-63
2022/01/18 10:23:00;;;;;;;29.77;13.48;;;6.90;99.90;;;;;;5072820;28;20231;-63
2022/01/18 10:25:27;;;;;;;27.42;13.40;;;7.00;99.90;;;;;;5071629;28;20181;-63
2022/01/18 10:27:54;;;;;;;28.65;13.85;;;7.10;99.90;;;;;;5072887;28;20179;-63
2022/01/18 10:30:33;;;;;;;25.23;13.20;;;7.20;99.90;;;;;;5072686;28;20185;-63
2022/01/18 10:33:16;;;;;;;26.33;12.05;;;7.30;99.90;;;;;;5072443;28;20173;-63
2022/01/18 10:36:11;;;;;;;23.60;12.68;;;7.30;99.90;;;;;;5072397;28;20191;-63
2022/01/18 10:38:50;;;;;;;28.85;12.93;;;7.40;99.90;;;;;;5072714;28;20667;-63
2022/01/18 10:41:30;;;;;;;24.58;12.82;;;7.50;99.90;;;;;;5072645;28;20176;-63
2022/01/18 10:44:11;;;;;;;23.95;12.82;;;7.70;99.90;;;;;;5082794;28;20219;-63
2022/01/18 10:46:45;;;;;;;23.88;12.00;;;7.80;99.90;;;;;;5092975;28;20176;-63
2022/01/18 10:49:23;;;;;;;22.70;11.95;;;7.90;99.90;;;;;;5092703;28;20302;-63
2022/01/18 10:52:00;;;;;;;24.98;12.02;;;7.90;99.90;;;;;;5092906;28;20176;-63
2022/01/18 10:54:46;;;;;;;25.33;11.85;;;8.00;99.90;;;;;;5092882;28;20267;-62
2022/01/18 10:57:36;;;;;;;24.33;12.55;;;7.90;99.90;;;;;;5092484;28;20263;-63
2022/01/18 11:00:12;;;;;;;24.40;12.52;;;7.90;99.90;;;;;;5092321;28;20322;-63
2022/01/18 11:02:43;;;;;;;22.95;11.70;;;7.90;99.90;;;;;;5092655;28;20199;-62
2022/01/18 11:05:24;;;;;;;26.35;13.63;;;7.80;99.90;;;;;;5092452;28;20180;-63
2022/01/18 11:07:50;;;;;;;30.52;14.45;;;7.80;99.90;;;;;;5092491;28;20206;-62
2022/01/18 11:10:21;;;;;;;25.15;13.65;;;7.80;99.90;;;;;;5087554;28;20193;-62
2022/01/18 11:13:03;;;;;;;24.95;12.23;;;7.90;99.90;;;;;;5071851;28;20177;-62
2022/01/18 11:15:32;;;;;;;23.52;11.15;;;7.90;99.90;;;;;;5072293;28;20206;-62
2022/01/18 11:18:00;;;;;;;24.45;12.05;;;7.80;99.90;;;;;;5071974;28;20502;-62
2022/01/18 11:20:31;;;;;;;23.02;11.98;;;7.80;99.90;;;;;;5072070;28;20183;-62
2022/01/18 11:22:57;;;;;;;28.85;13.05;;;7.70;99.90;;;;;;5071761;28;20225;-63
2022/01/18 11:25:24;;;;;;;24.98;12.43;;;7.70;99.90;;;;;;5071905;28;20180;-63
2022/01/18 11:27:53;;;;;;;25.42;12.20;;;7.70;99.90;;;;;;5072053;28;20283;-63
2022/01/18 11:30:24;;;;;;;25.38;12.07;;;7.70;99.90;;;;;;5072007;28;20644;-64
2022/01/18 11:32:51;;;;;;;20.42;10.88;;;7.70;99.90;;;;;;5072030;28;20184;-63
2022/01/18 11:35:40;;;;;;;22.55;11.10;;;7.70;99.90;;;;;;5072189;28;20177;-63
2022/01/18 11:38:33;;;;;;;23.20;10.90;;;7.70;99.90;;;;;;5071707;28;20169;-63
2022/01/18 11:40:59;;;;;;;21.30;11.15;;;7.60;99.90;;;;;;5071793;28;20217;-63
2022/01/18 11:43:43;;;;;;;23.92;11.95;;;7.70;99.90;;;;;;5077397;28;20208;-63
2022/01/18 11:46:23;;;;;;;22.70;10.57;;;7.70;99.90;;;;;;5091750;28;20164;-63
2022/01/18 11:48:57;;;;;;;19.48;10.55;;;7.80;99.90;;;;;;5091783;28;20168;-63
2022/01/18 11:51:38;;;;;;;18.15;8.65;;;7.80;99.90;;;;;;5091743;28;20195;-64
2022/01/18 11:54:37;;;;;;;18.63;9.27;;;7.90;99.90;;;;;;5091675;28;20187;-64
2022/01/18 11:57:25;;;;;;;19.48;9.77;;;7.90;99.90;;;;;;5091599;28;20279;-64
2022/01/18 12:00:07;;;;;;;18.92;8.25;;;7.90;99.90;;;;;;5091735;28;20228;-64
2022/01/18 12:02:39;;;;;;;14.88;7.65;;;7.90;99.90;;;;;;5091645;28;20218;-64
2022/01/18 12:05:24;;;;;;;17.88;8.57;;;7.90;99.90;;;;;;5091630;28;20186;-63
2022/01/18 12:07:57;;;;;;;17.33;7.45;;;7.90;99.90;;;;;;5091726;28;20168;-64
2022/01/18 12:10:38;;;;;;;13.98;6.72;;;7.80;99.90;;;;;;5085870;28;20275;-64
2022/01/18 12:13:12;;;;;;;12.13;6.68;;;7.80;99.90;;;;;;5071335;28;20299;-64
2022/01/18 12:15:41;;;;;;;15.40;6.97;;;7.60;99.90;;;;;;5071574;28;20571;-63
2022/01/18 12:18:12;;;;;;;16.70;7.10;;;7.60;99.90;;;;;;5071517;28;20254;-63
2022/01/18 12:20:43;;;;;;;13.15;7.22;;;7.50;99.90;;;;;;5070175;28;20180;-64
2022/01/18 12:23:17;;;;;;;14.85;6.82;;;7.50;99.90;;;;;;5070049;28;20684;-63
2022/01/18 12:26:02;;;;;;;13.73;7.45;;;7.50;99.90;;;;;;5075194;28;20172;-63
2022/01/18 12:34:25;;;;;;;9.38;4.90;;;7.70;99.90;;;;;;5075461;28;20226;-64
2022/01/18 12:36:53;;;;;;;10.88;5.60;;;7.70;99.90;;;;;;5075523;28;20180;-65
2022/01/18 12:39:18;;;;;;;12.82;5.97;;;7.70;99.90;;;;;;5075617;28;20177;-64
2022/01/18 12:41:50;;;;;;;11.73;5.63;;;7.70;99.90;;;;;;5073974;28;20173;-64
2022/01/18 12:44:22;;;;;;;9.95;5.55;;;7.60;99.90;;;;;;5088116;28;20542;-64
2022/01/18 12:46:58;;;;;;;10.82;5.28;;;7.60;99.90;;;;;;5078163;28;20172;-64
2022/01/18 12:49:25;;;;;;;9.70;5.40;;;7.50;99.90;;;;;;5094058;28;20233;-65
2022/01/18 12:51:59;;;;;;;9.30;5.07;;;7.60;99.90;;;;;;5094151;28;20188;-64
2022/01/18 12:54:38;;;;;;;8.68;4.80;;;7.60;99.90;;;;;;5095267;28;20512;-64
2022/01/18 12:57:20;;;;;;;7.03;4.68;;;7.60;99.90;;;;;;5095123;28;20180;-65
2022/01/18 13:00:14;;;;;;;6.15;3.47;;;7.60;99.90;;;;;;5095087;28;20220;-64
2022/01/18 13:02:45;;;;;;;8.18;4.20;;;7.60;99.90;;;;;;5093840;28;20219;-65
2022/01/18 13:05:11;;;;;;;7.32;3.70;;;7.60;99.90;;;;;;5095154;28;20259;-64
2022/01/18 13:07:55;;;;;;;8.35;4.22;;;7.60;99.90;;;;;;5095060;28;20313;-64
2022/01/18 13:10:35;;;;;;;7.65;3.63;;;7.60;99.90;;;;;;5090408;28;20188;-64
2022/01/18 13:13:01;;;;;;;6.90;4.05;;;7.60;99.90;;;;;;5074534;28;20226;-65
2022/01/18 13:22:56;;;;;;;6.55;2.75;;;7.50;99.90;;;;;;5074563;28;20263;-64
2022/01/18 13:27:00;;;;;;;5.95;3.55;;;7.40;99.90;;;;;;5074761;28;20226;-64
2022/01/18 13:29:27;;;;;;;5.75;3.20;;;7.40;99.90;;;;;;5074549;28;20172;-64
2022/01/18 13:32:20;;;;;;;7.53;3.95;;;7.30;99.90;;;;;;5074403;28;20172;-64
2022/01/18 13:34:49;;;;;;;6.45;3.78;;;7.30;99.90;;;;;;5074340;28;20197;-64
2022/01/18 13:37:17;;;;;;;7.40;3.67;;;7.30;99.90;;;;;;5074182;28;20169;-65
2022/01/18 13:39:52;;;;;;;8.00;3.40;;;7.30;99.90;;;;;;5074259;28;20630;-64
2022/01/18 13:42:20;;;;;;;8.88;4.65;;;7.20;99.90;;;;;;5072798;28;20295;-64
2022/01/18 13:45:09;;;;;;;10.15;4.32;;;7.20;99.90;;;;;;5091215;28;20172;-64
2022/01/18 13:47:40;;;;;;;8.75;4.68;;;7.20;99.90;;;;;;5094128;28;20302;-64
2022/01/18 13:50:06;;;;;;;9.40;4.55;;;7.20;99.90;;;;;;5093685;28;20186;-64
2022/01/18 13:52:32;;;;;;;6.53;3.92;;;7.30;99.90;;;;;;5093941;28;20712;-64
2022/01/18 13:54:57;;;;;;;5.53;2.70;;;7.40;99.90;;;;;;5093739;28;20179;-64
2022/01/18 13:57:23;;;;;;;5.57;3.13;;;7.50;99.90;;;;;;5093654;28;20176;-64
2022/01/18 13:59:51;;;;;;;8.32;3.70;;;7.50;99.90;;;;;;5093607;28;20238;-64
2022/01/18 14:02:19;;;;;;;6.32;2.63;;;7.50;99.90;;;;;;5093606;28;20196;-63
2022/01/18 14:04:46;;;;;;;5.60;2.58;;;7.60;99.90;;;;;;5093501;28;20184;-63
2022/01/18 14:07:13;;;;;;;5.38;2.50;;;7.50;99.90;;;;;;5093563;28;20209;-64
2022/01/18 14:09:39;;;;;;;3.50;2.42;;;7.50;99.90;;;;;;5093610;28;20184;-64